createdAt,value
2022-07-29T00:01:19.159Z,10.9
2022-07-29T00:08:52.155Z,6.4
2022-07-29T00:16:24.531Z,5.8
2022-07-29T00:23:56.942Z,6.5
2022-07-29T00:31:29.409Z,6.2
2022-07-29T00:39:01.790Z,9.0
2022-07-29T00:46:34.208Z,6.0
2022-07-29T00:54:06.572Z,5.8
2022-07-29T01:01:38.932Z,7.3
2022-07-29T01:09:11.261Z,6.9
2022-07-29T01:16:43.744Z,8.2
2022-07-29T01:24:16.627Z,7.1
2022-07-29T01:32:00.933Z,5.8
2022-07-29T01:39:31.429Z,7.2
2022-07-29T01:47:05.821Z,5.6
2022-07-29T01:54:38.137Z,6.0
2022-07-29T02:02:10.512Z,6.0
2022-07-29T02:09:42.858Z,6.2
2022-07-29T02:17:15.171Z,6.0
2022-07-29T02:24:47.608Z,8.1
2022-07-29T02:32:19.965Z,7.8
2022-07-29T02:39:52.585Z,6.5
2022-07-29T02:47:24.909Z,6.4
2022-07-29T02:54:57.226Z,6.6
2022-07-29T03:02:29.555Z,5.3
2022-07-29T03:03:19.370Z,5.1
2022-07-29T03:04:06.802Z,6.4
2022-07-29T03:04:54.149Z,26.2
2022-07-29T03:05:41.485Z,7.6
2022-07-29T03:13:13.809Z,9.8
2022-07-29T03:20:46.141Z,8.4
2022-07-29T03:28:18.496Z,7.2
2022-07-29T03:35:51.530Z,7.1
2022-07-29T03:43:23.856Z,9.2
2022-07-29T03:50:56.218Z,5.2
2022-07-29T03:58:28.546Z,6.2
2022-07-29T04:06:00.868Z,6.1
2022-07-29T04:13:33.205Z,6.6
2022-07-29T04:19:12.823Z,6.5
2022-07-29T04:20:00.157Z,8.9
2022-07-29T04:20:47.470Z,11.1
2022-07-29T04:21:34.783Z,7.4
2022-07-29T04:22:22.098Z,7.7
2022-07-29T04:23:10.354Z,14.8
2022-07-29T04:23:57.685Z,7.8
2022-07-29T04:24:45.001Z,7.3
2022-07-29T04:25:32.299Z,7.6
2022-07-29T04:26:19.614Z,14.0
2022-07-29T04:27:06.923Z,8.9
2022-07-29T04:27:54.225Z,8.8
2022-07-29T04:28:41.542Z,9.8
2022-07-29T04:29:28.851Z,8.9
2022-07-29T04:30:16.216Z,8.8
2022-07-29T04:31:03.579Z,8.4
2022-07-29T04:31:50.988Z,8.5
2022-07-29T04:32:38.317Z,10.4
2022-07-29T04:33:25.666Z,9.6
2022-07-29T04:34:13.435Z,12.1
2022-07-29T04:35:01.001Z,11.4
2022-07-29T04:35:49.988Z,6.7
2022-07-29T04:36:38.066Z,7.3
2022-07-29T04:37:25.378Z,7.8
2022-07-29T04:38:15.561Z,9.7
2022-07-29T04:39:04.334Z,10.3
2022-07-29T04:39:51.854Z,7.1
2022-07-29T04:40:39.176Z,8.1
2022-07-29T04:41:33.275Z,9.5
2022-07-29T04:42:27.536Z,7.3
2022-07-29T04:43:15.515Z,5.9
2022-07-29T04:44:02.913Z,7.4
2022-07-29T04:44:50.635Z,11.2
2022-07-29T04:45:39.241Z,6.3
2022-07-29T04:46:26.660Z,5.5
2022-07-29T04:47:14.001Z,6.6
2022-07-29T04:48:01.309Z,7.7
2022-07-29T04:48:48.667Z,8.2
2022-07-29T04:49:35.997Z,5.6
2022-07-29T04:50:23.322Z,5.6
2022-07-29T04:51:10.631Z,6.2
2022-07-29T04:51:57.933Z,5.6
2022-07-29T04:52:45.245Z,6.6
2022-07-29T04:53:32.549Z,9.4
2022-07-29T04:54:19.952Z,9.5
2022-07-29T04:55:07.395Z,8.8
2022-07-29T04:55:54.708Z,6.0
2022-07-29T04:56:42.018Z,5.8
2022-07-29T04:57:29.333Z,5.9
2022-07-29T04:58:16.662Z,15.4
2022-07-29T04:59:03.959Z,7.5
2022-07-29T04:59:51.281Z,8.4
2022-07-29T05:00:38.586Z,10.5
2022-07-29T05:01:25.959Z,15.0
2022-07-29T05:02:13.306Z,7.5
2022-07-29T05:03:00.831Z,7.2
2022-07-29T05:03:48.280Z,16.0
2022-07-29T05:04:35.592Z,10.9
2022-07-29T05:05:22.919Z,14.6
2022-07-29T05:06:10.228Z,6.6
2022-07-29T05:06:57.538Z,9.7
2022-07-29T05:07:44.879Z,24.2
2022-07-29T05:08:32.187Z,12.5
2022-07-29T05:09:19.517Z,10.2
2022-07-29T05:10:06.841Z,11.2
2022-07-29T05:10:54.153Z,6.3
2022-07-29T05:11:41.460Z,6.2
2022-07-29T05:12:28.805Z,6.6
2022-07-29T05:13:16.117Z,8.8
2022-07-29T05:14:03.434Z,8.2
2022-07-29T05:14:50.751Z,12.1
2022-07-29T05:15:38.119Z,16.2
2022-07-29T05:16:25.559Z,9.4
2022-07-29T05:17:12.897Z,9.3
2022-07-29T05:18:00.210Z,10.0
2022-07-29T05:18:47.533Z,7.1
2022-07-29T05:19:34.860Z,8.4
2022-07-29T05:20:27.097Z,6.8
2022-07-29T05:21:14.487Z,11.9
2022-07-29T05:22:01.813Z,13.3
2022-07-29T05:22:49.117Z,17.5
2022-07-29T05:23:36.553Z,11.5
2022-07-29T05:24:23.857Z,10.3
2022-07-29T05:25:11.157Z,8.5
2022-07-29T05:25:58.565Z,14.1
2022-07-29T05:26:45.879Z,9.4
2022-07-29T05:27:33.186Z,12.1
2022-07-29T05:28:20.586Z,10.5
2022-07-29T05:29:07.896Z,6.5
2022-07-29T05:30:05.182Z,6.0
2022-07-29T05:30:52.669Z,14.4
2022-07-29T05:31:40.037Z,6.3
2022-07-29T05:32:27.355Z,6.7
2022-07-29T05:33:35.198Z,12.9
2022-07-29T05:34:12.029Z,12.7
2022-07-29T05:34:59.461Z,7.0
2022-07-29T05:35:46.776Z,7.7
2022-07-29T05:36:34.093Z,6.4
2022-07-29T05:37:21.506Z,6.8
2022-07-29T05:38:08.846Z,5.5
2022-07-29T05:38:56.166Z,6.9
2022-07-29T05:39:48.238Z,7.0
2022-07-29T05:40:36.493Z,6.3
2022-07-29T05:41:23.901Z,7.0
2022-07-29T05:42:11.210Z,6.8
2022-07-29T05:42:58.533Z,5.3
2022-07-29T05:43:45.954Z,5.4
2022-07-29T05:44:33.260Z,4.5
2022-07-29T05:45:20.561Z,4.4
2022-07-29T05:46:08.015Z,5.3
2022-07-29T05:46:56.409Z,5.2
2022-07-29T05:47:43.718Z,9.1
2022-07-29T05:48:31.032Z,5.8
2022-07-29T05:49:27.375Z,13.2
2022-07-29T05:50:14.912Z,7.7
2022-07-29T05:51:02.320Z,5.3
2022-07-29T05:51:49.642Z,10.9
2022-07-29T05:52:36.976Z,5.3
2022-07-29T05:53:24.391Z,6.7
2022-07-29T05:54:11.731Z,7.0
2022-07-29T05:54:59.039Z,5.4
2022-07-29T05:55:46.476Z,12.4
2022-07-29T05:56:33.803Z,6.9
2022-07-29T05:57:21.114Z,12.3
2022-07-29T05:58:08.557Z,7.5
2022-07-29T05:58:55.865Z,11.7
2022-07-29T05:59:43.839Z,8.7
2022-07-29T06:00:31.171Z,7.8
2022-07-29T06:01:18.628Z,9.3
2022-07-29T06:02:05.974Z,10.3
2022-07-29T06:02:53.294Z,12.7
2022-07-29T06:03:40.749Z,7.6
2022-07-29T06:04:28.097Z,8.0
2022-07-29T06:05:17.029Z,6.8
2022-07-29T06:06:52.018Z,7.2
2022-07-29T06:07:39.386Z,5.4
2022-07-29T06:08:36.672Z,7.8
2022-07-29T06:09:24.117Z,6.9
2022-07-29T06:10:11.423Z,8.5
2022-07-29T06:10:58.747Z,8.3
2022-07-29T06:11:46.174Z,5.6
2022-07-29T06:12:33.483Z,7.0
2022-07-29T06:13:20.786Z,6.7
2022-07-29T06:14:08.183Z,7.7
2022-07-29T06:14:55.505Z,5.8
2022-07-29T06:15:42.878Z,5.1
2022-07-29T06:16:30.650Z,6.5
2022-07-29T06:17:18.257Z,5.6
2022-07-29T06:18:05.560Z,7.1
2022-07-29T06:18:53.176Z,10.4
2022-07-29T06:19:40.579Z,5.5
2022-07-29T06:20:27.920Z,6.2
2022-07-29T06:21:15.229Z,6.1
2022-07-29T06:22:02.677Z,7.6
2022-07-29T06:22:49.989Z,5.1
2022-07-29T06:23:38.434Z,5.3
2022-07-29T06:24:25.848Z,4.9
2022-07-29T06:25:13.159Z,5.2
2022-07-29T06:26:00.467Z,7.3
2022-07-29T06:26:47.897Z,5.1
2022-07-29T06:27:35.217Z,9.2
2022-07-29T06:28:23.067Z,4.8
2022-07-29T06:29:10.464Z,4.4
2022-07-29T06:29:57.819Z,7.7
2022-07-29T06:30:45.186Z,5.8
2022-07-29T06:31:32.575Z,7.0
2022-07-29T06:32:19.902Z,11.0
2022-07-29T06:33:10.284Z,5.9
2022-07-29T06:33:57.690Z,5.0
2022-07-29T06:34:46.279Z,7.4
2022-07-29T06:35:38.552Z,5.4
2022-07-29T06:36:29.546Z,12.1
2022-07-29T06:37:17.361Z,6.2
2022-07-29T06:38:09.530Z,5.5
2022-07-29T06:39:02.857Z,5.5
2022-07-29T06:39:51.241Z,6.5
2022-07-29T06:40:38.579Z,6.5
2022-07-29T06:41:25.878Z,8.9
2022-07-29T06:42:13.175Z,5.7
2022-07-29T06:43:00.614Z,7.1
2022-07-29T06:43:52.542Z,5.9
2022-07-29T06:44:41.998Z,6.4
2022-07-29T06:45:29.402Z,5.2
2022-07-29T06:46:16.747Z,5.6
2022-07-29T06:47:04.069Z,6.8
2022-07-29T06:47:51.519Z,6.0
2022-07-29T06:48:39.044Z,6.2
2022-07-29T06:49:26.405Z,5.7
2022-07-29T06:50:13.831Z,8.5
2022-07-29T06:51:01.131Z,6.9
2022-07-29T06:51:48.434Z,7.7
2022-07-29T06:52:35.870Z,7.5
2022-07-29T06:53:23.182Z,5.4
2022-07-29T06:54:10.499Z,6.6
2022-07-29T06:54:57.918Z,4.8
2022-07-29T06:55:45.259Z,5.7
2022-07-29T06:56:38.521Z,11.9
2022-07-29T06:57:27.002Z,5.3
2022-07-29T06:58:14.408Z,7.0
2022-07-29T06:59:01.708Z,10.3
2022-07-29T06:59:49.016Z,6.1
2022-07-29T07:00:36.433Z,6.0
2022-07-29T07:01:23.845Z,8.4
2022-07-29T07:02:11.276Z,10.0
2022-07-29T07:02:58.642Z,5.8
2022-07-29T07:03:45.971Z,7.5
2022-07-29T07:04:33.276Z,7.0
2022-07-29T07:05:20.723Z,12.2
2022-07-29T07:06:11.911Z,12.2
2022-07-29T07:07:02.033Z,6.0
2022-07-29T07:07:49.558Z,6.2
2022-07-29T07:08:36.891Z,6.8
2022-07-29T07:09:24.202Z,10.3
2022-07-29T07:10:11.636Z,4.9
2022-07-29T07:10:58.953Z,6.5
2022-07-29T07:11:46.281Z,6.8
2022-07-29T07:12:37.084Z,6.6
2022-07-29T07:13:24.473Z,5.3
2022-07-29T07:14:11.869Z,5.0
2022-07-29T07:14:59.168Z,6.9
2022-07-29T07:15:46.631Z,6.5
2022-07-29T07:16:33.997Z,6.4
2022-07-29T07:17:21.442Z,7.3
2022-07-29T07:18:09.041Z,5.5
2022-07-29T07:18:56.363Z,7.0
2022-07-29T07:19:43.665Z,8.3
2022-07-29T07:20:31.114Z,5.3
2022-07-29T07:21:19.302Z,10.6
2022-07-29T07:22:06.945Z,12.7
2022-07-29T07:22:54.370Z,7.7
2022-07-29T07:23:41.705Z,8.4
2022-07-29T07:24:29.005Z,9.0
2022-07-29T07:25:16.425Z,16.6
2022-07-29T07:26:03.746Z,25.4
2022-07-29T07:26:51.049Z,7.6
2022-07-29T07:27:38.445Z,9.9
2022-07-29T07:28:25.770Z,6.3
2022-07-29T07:29:13.103Z,13.3
2022-07-29T07:30:00.490Z,9.3
2022-07-29T07:30:47.837Z,12.0
2022-07-29T07:31:35.222Z,8.1
2022-07-29T07:32:22.577Z,16.8
2022-07-29T07:33:09.964Z,5.7
2022-07-29T07:33:57.298Z,5.4
2022-07-29T07:34:44.702Z,7.6
2022-07-29T07:35:32.014Z,5.8
2022-07-29T07:36:19.340Z,15.4
2022-07-29T07:37:06.724Z,5.3
2022-07-29T07:37:54.028Z,5.2
2022-07-29T07:38:42.006Z,4.7
2022-07-29T07:39:29.433Z,6.0
2022-07-29T07:40:18.452Z,5.2
2022-07-29T07:41:06.223Z,9.0
2022-07-29T07:41:53.679Z,14.6
2022-07-29T07:42:40.983Z,8.9
2022-07-29T07:43:30.478Z,6.8
2022-07-29T07:44:18.107Z,8.3
2022-07-29T07:45:13.636Z,4.8
2022-07-29T07:46:03.181Z,7.3
2022-07-29T07:46:50.523Z,7.0
2022-07-29T07:47:37.840Z,7.9
2022-07-29T07:48:25.207Z,9.9
2022-07-29T07:49:12.690Z,7.0
2022-07-29T07:50:00.156Z,14.9
2022-07-29T07:50:47.457Z,7.3
2022-07-29T07:51:34.905Z,12.9
2022-07-29T07:52:22.400Z,8.6
2022-07-29T07:53:09.718Z,10.3
2022-07-29T07:53:57.145Z,7.0
2022-07-29T07:54:45.146Z,4.4
2022-07-29T07:55:47.518Z,8.1
2022-07-29T07:56:33.323Z,4.9
2022-07-29T07:57:22.550Z,7.2
2022-07-29T07:58:09.935Z,6.9
2022-07-29T07:58:57.320Z,6.6
2022-07-29T07:59:44.627Z,4.1
2022-07-29T08:00:32.491Z,6.6
2022-07-29T08:01:20.163Z,5.2
2022-07-29T08:02:07.661Z,4.4
2022-07-29T08:02:55.134Z,6.4
2022-07-29T08:03:42.498Z,11.2
2022-07-29T08:04:30.021Z,6.7
2022-07-29T08:05:17.422Z,4.5
2022-07-29T08:06:04.855Z,7.8
2022-07-29T08:06:52.169Z,4.6
2022-07-29T08:07:39.477Z,5.2
2022-07-29T08:08:26.926Z,13.1
2022-07-29T08:09:28.572Z,3.8
2022-07-29T08:10:11.518Z,6.7
2022-07-29T08:10:58.974Z,3.8
2022-07-29T08:11:52.044Z,6.5
2022-07-29T08:12:39.844Z,7.7
2022-07-29T08:13:27.185Z,5.6
2022-07-29T08:14:14.788Z,4.3
2022-07-29T08:15:02.302Z,7.1
2022-07-29T08:15:49.722Z,4.6
2022-07-29T08:16:37.050Z,4.9
2022-07-29T08:17:24.417Z,4.4
2022-07-29T08:18:11.827Z,4.8
2022-07-29T08:18:59.265Z,8.3
2022-07-29T08:19:46.585Z,4.5
2022-07-29T08:20:34.013Z,7.5
2022-07-29T08:21:21.326Z,4.0
2022-07-29T08:22:08.647Z,4.7
2022-07-29T08:22:56.057Z,5.8
2022-07-29T08:23:46.849Z,16.9
2022-07-29T08:24:36.101Z,17.0
2022-07-29T08:25:23.526Z,20.8
2022-07-29T08:26:10.832Z,10.5
2022-07-29T08:26:58.154Z,19.4
2022-07-29T08:27:45.574Z,24.5
2022-07-29T08:28:32.877Z,11.7
2022-07-29T08:29:20.311Z,17.2
2022-07-29T08:30:07.701Z,16.6
2022-07-29T08:30:55.015Z,38.5
2022-07-29T08:31:42.411Z,18.4
2022-07-29T08:32:52.133Z,21.6
2022-07-29T08:33:27.052Z,22.6
2022-07-29T08:34:15.503Z,12.4
2022-07-29T08:35:02.831Z,13.8
2022-07-29T08:35:50.197Z,16.6
2022-07-29T08:36:37.526Z,18.1
2022-07-29T08:37:24.959Z,16.2
2022-07-29T08:38:12.311Z,9.9
2022-07-29T08:38:59.644Z,9.0
2022-07-29T08:39:47.096Z,16.6
2022-07-29T08:40:34.545Z,12.7
2022-07-29T08:41:21.888Z,13.0
2022-07-29T08:42:09.281Z,9.0
2022-07-29T08:42:56.605Z,9.0
2022-07-29T08:43:43.918Z,6.7
2022-07-29T08:44:31.369Z,4.6
2022-07-29T08:45:18.692Z,14.8
2022-07-29T08:46:06.122Z,8.2
2022-07-29T08:46:53.506Z,5.4
2022-07-29T08:47:41.041Z,9.2
2022-07-29T08:48:28.487Z,5.5
2022-07-29T08:49:15.881Z,5.0
2022-07-29T08:50:03.258Z,3.9
2022-07-29T08:50:50.566Z,4.5
2022-07-29T08:51:49.244Z,5.0
2022-07-29T08:52:35.265Z,5.9
2022-07-29T08:53:22.685Z,7.5
2022-07-29T08:54:09.997Z,13.7
2022-07-29T08:54:57.296Z,9.5
2022-07-29T08:55:44.761Z,11.8
2022-07-29T08:56:32.082Z,4.9
2022-07-29T08:57:19.421Z,6.4
2022-07-29T08:58:07.544Z,7.2
2022-07-29T08:58:55.252Z,3.6
2022-07-29T08:59:43.205Z,4.9
2022-07-29T09:00:30.961Z,11.2
2022-07-29T09:01:18.470Z,11.8
2022-07-29T09:02:07.418Z,8.3
2022-07-29T09:02:56.613Z,9.5
2022-07-29T09:03:43.985Z,5.6
2022-07-29T09:04:31.344Z,10.0
2022-07-29T09:05:18.666Z,10.0
2022-07-29T09:06:05.984Z,7.7
2022-07-29T09:06:53.309Z,5.9
2022-07-29T09:07:40.630Z,7.8
2022-07-29T09:08:27.935Z,8.7
2022-07-29T09:09:15.249Z,4.4
2022-07-29T09:10:02.561Z,3.8
2022-07-29T09:10:49.941Z,3.6
2022-07-29T09:11:37.252Z,8.5
2022-07-29T09:12:28.760Z,6.0
2022-07-29T09:13:16.950Z,6.8
2022-07-29T09:14:04.276Z,5.8
2022-07-29T09:14:51.601Z,4.7
2022-07-29T09:15:38.945Z,2.8
2022-07-29T09:16:50.940Z,3.8
2022-07-29T09:17:23.721Z,8.3
2022-07-29T09:18:20.357Z,5.7
2022-07-29T09:19:08.353Z,8.0
2022-07-29T09:19:55.785Z,7.4
2022-07-29T09:20:43.102Z,5.6
2022-07-29T09:21:30.406Z,3.9
2022-07-29T09:22:17.851Z,6.2
2022-07-29T09:23:05.170Z,6.8
2022-07-29T09:23:52.477Z,3.7
2022-07-29T09:24:39.890Z,4.0
2022-07-29T09:25:27.201Z,5.6
2022-07-29T09:26:14.501Z,5.6
2022-07-29T09:27:01.904Z,5.6
2022-07-29T09:27:49.689Z,3.4
2022-07-29T09:28:37.006Z,2.7
2022-07-29T09:29:24.394Z,6.6
2022-07-29T09:30:11.803Z,4.1
2022-07-29T09:30:59.285Z,14.6
2022-07-29T09:31:46.713Z,4.4
2022-07-29T09:32:34.084Z,7.4
2022-07-29T09:33:21.380Z,4.1
2022-07-29T09:34:08.818Z,8.6
2022-07-29T09:34:58.489Z,3.5
2022-07-29T09:35:56.351Z,5.2
2022-07-29T09:36:43.186Z,4.0
2022-07-29T09:37:30.566Z,6.1
2022-07-29T09:38:17.880Z,5.4
2022-07-29T09:39:05.185Z,4.8
2022-07-29T09:39:52.617Z,9.7
2022-07-29T09:40:39.937Z,5.0
2022-07-29T09:41:27.257Z,4.6
2022-07-29T09:42:14.674Z,3.1
2022-07-29T09:43:04.177Z,9.5
2022-07-29T09:43:51.483Z,5.5
2022-07-29T09:44:38.806Z,4.3
2022-07-29T09:45:26.117Z,5.9
2022-07-29T09:46:13.426Z,3.9
2022-07-29T09:47:00.828Z,3.8
2022-07-29T09:47:48.177Z,3.8
2022-07-29T09:48:35.482Z,5.7
2022-07-29T09:49:22.829Z,12.7
2022-07-29T09:50:10.187Z,6.7
2022-07-29T09:50:57.505Z,10.0
2022-07-29T09:51:44.893Z,6.0
2022-07-29T09:52:32.198Z,11.9
2022-07-29T09:53:19.520Z,4.7
2022-07-29T09:54:06.827Z,6.6
2022-07-29T09:54:54.142Z,2.9
2022-07-29T09:55:41.460Z,7.3
2022-07-29T09:56:28.771Z,5.3
2022-07-29T09:57:16.072Z,4.4
2022-07-29T09:58:03.386Z,4.1
2022-07-29T09:58:50.715Z,3.8
2022-07-29T09:59:50.270Z,5.1
2022-07-29T10:00:35.359Z,2.9
2022-07-29T10:01:22.886Z,5.0
2022-07-29T10:02:10.205Z,4.2
2022-07-29T10:02:57.560Z,3.9
2022-07-29T10:03:44.977Z,6.5
2022-07-29T10:04:32.350Z,12.0
2022-07-29T10:05:19.627Z,3.9
2022-07-29T10:06:07.103Z,10.0
2022-07-29T10:06:54.417Z,3.5
2022-07-29T10:07:41.726Z,5.7
2022-07-29T10:08:29.161Z,4.8
2022-07-29T10:09:16.582Z,4.4
2022-07-29T10:10:09.588Z,4.0
2022-07-29T10:10:57.792Z,3.9
2022-07-29T10:11:49.122Z,2.8
2022-07-29T10:12:37.216Z,4.0
2022-07-29T10:13:24.550Z,7.9
2022-07-29T10:14:11.857Z,3.2
2022-07-29T10:14:59.166Z,4.8
2022-07-29T10:15:46.588Z,6.0
2022-07-29T10:16:34.103Z,5.5
2022-07-29T10:17:21.656Z,3.6
2022-07-29T10:18:08.976Z,6.0
2022-07-29T10:18:56.272Z,7.9
2022-07-29T10:19:43.596Z,7.4
2022-07-29T10:20:30.917Z,3.5
2022-07-29T10:21:35.550Z,7.5
2022-07-29T10:22:31.152Z,5.5
2022-07-29T10:23:13.022Z,3.4
2022-07-29T10:24:01.190Z,3.9
2022-07-29T10:24:48.986Z,3.6
2022-07-29T10:25:36.292Z,4.4
2022-07-29T10:26:23.626Z,3.2
2022-07-29T10:27:10.933Z,3.7
2022-07-29T10:27:58.290Z,4.4
2022-07-29T10:28:45.593Z,3.1
2022-07-29T10:29:32.898Z,5.5
2022-07-29T10:30:20.218Z,4.1
2022-07-29T10:31:07.557Z,4.2
2022-07-29T10:31:55.189Z,3.1
2022-07-29T10:32:42.680Z,4.0
2022-07-29T10:33:30.190Z,4.4
2022-07-29T10:34:18.520Z,5.3
2022-07-29T10:35:06.559Z,2.3
2022-07-29T10:35:54.346Z,4.2
2022-07-29T10:43:26.693Z,6.0
2022-07-29T10:48:49.960Z,3.4
2022-07-29T10:49:37.326Z,8.0
2022-07-29T10:50:28.444Z,4.7
2022-07-29T10:51:15.901Z,4.2
2022-07-29T10:52:07.830Z,13.1
2022-07-29T10:52:55.352Z,4.1
2022-07-29T10:53:42.684Z,4.4
2022-07-29T10:54:30.713Z,10.1
2022-07-29T10:55:18.029Z,9.2
2022-07-29T10:56:06.513Z,4.5
2022-07-29T10:56:53.979Z,6.0
2022-07-29T10:57:53.185Z,3.9
2022-07-29T10:58:38.697Z,11.3
2022-07-29T10:59:32.421Z,3.8
2022-07-29T11:00:23.793Z,4.8
2022-07-29T11:01:11.197Z,3.8
2022-07-29T11:02:35.542Z,4.0
2022-07-29T11:02:56.194Z,5.5
2022-07-29T11:03:50.728Z,11.2
2022-07-29T11:04:39.824Z,3.5
2022-07-29T11:05:32.087Z,4.4
2022-07-29T11:06:28.120Z,7.3
2022-07-29T11:07:15.641Z,5.1
2022-07-29T11:08:04.644Z,7.2
2022-07-29T11:09:41.879Z,7.7
2022-07-29T11:10:31.930Z,6.2
2022-07-29T11:11:19.446Z,5.2
2022-07-29T11:12:06.771Z,3.4
2022-07-29T11:12:56.614Z,4.5
2022-07-29T11:13:44.010Z,4.8
2022-07-29T11:14:31.400Z,5.0
2022-07-29T11:15:20.157Z,6.7
2022-07-29T11:16:07.614Z,3.7
2022-07-29T11:16:55.857Z,4.0
2022-07-29T11:17:52.069Z,3.6
2022-07-29T11:18:40.452Z,4.6
2022-07-29T11:19:30.407Z,3.2
2022-07-29T11:20:18.227Z,3.8
2022-07-29T11:21:08.020Z,3.5
2022-07-29T11:22:00.477Z,4.6
2022-07-29T11:22:47.828Z,4.4
2022-07-29T11:23:35.316Z,5.7
2022-07-29T11:25:43.063Z,6.5
2022-07-29T11:26:18.834Z,3.1
2022-07-29T11:27:06.381Z,5.8
2022-07-29T11:27:56.204Z,7.9
2022-07-29T11:28:44.467Z,3.3
2022-07-29T11:29:31.801Z,3.8
2022-07-29T11:30:27.231Z,5.2
2022-07-29T11:31:15.544Z,4.2
2022-07-29T11:32:02.859Z,3.1
2022-07-29T11:32:50.504Z,4.1
2022-07-29T11:33:56.503Z,2.8
2022-07-29T11:34:35.141Z,4.1
2022-07-29T11:35:37.886Z,3.1
2022-07-29T11:36:19.843Z,4.1
2022-07-29T11:37:15.743Z,4.0
2022-07-29T11:38:05.138Z,3.9
2022-07-29T11:38:52.605Z,3.4
2022-07-29T11:39:40.490Z,5.8
2022-07-29T11:40:27.847Z,5.8
2022-07-29T11:41:15.149Z,3.8
2022-07-29T11:42:13.542Z,3.9
2022-07-29T11:42:59.791Z,8.1
2022-07-29T11:43:47.456Z,9.0
2022-07-29T11:44:38.025Z,4.1
2022-07-29T11:45:43.524Z,4.2
2022-07-29T11:46:24.964Z,4.8
2022-07-29T11:47:12.562Z,5.1
2022-07-29T11:48:28.774Z,3.4
2022-07-29T11:48:59.607Z,3.6
2022-07-29T11:49:47.028Z,11.1
2022-07-29T11:50:35.574Z,14.1
2022-07-29T11:51:32.923Z,8.4
2022-07-29T11:52:20.677Z,8.8
2022-07-29T11:53:10.952Z,8.9
2022-07-29T11:54:04.035Z,13.0
2022-07-29T11:54:58.081Z,12.7
2022-07-29T11:55:51.083Z,17.0
2022-07-29T11:56:39.359Z,22.7
2022-07-29T11:57:36.272Z,14.6
2022-07-29T11:58:24.844Z,22.2
2022-07-29T12:00:12.431Z,15.1
2022-07-29T12:01:04.560Z,13.0
2022-07-29T12:01:58.713Z,15.7
2022-07-29T12:02:50.225Z,19.4
2022-07-29T12:03:37.616Z,8.9
2022-07-29T12:04:26.219Z,9.4
2022-07-29T12:05:14.462Z,6.0
2022-07-29T12:06:01.899Z,6.2
2022-07-29T12:06:49.229Z,6.6
2022-07-29T12:07:01.183Z,3.1
2022-07-29T12:07:02.430Z,15.2
2022-07-29T12:07:38.247Z,8.9
2022-07-29T12:08:26.219Z,7.8
2022-07-29T12:09:14.489Z,8.0
2022-07-29T12:10:02.111Z,6.3
2022-07-29T12:10:49.550Z,9.9
2022-07-29T12:11:36.860Z,13.7
2022-07-29T12:12:24.552Z,10.9
2022-07-29T12:13:11.933Z,14.8
2022-07-29T12:13:59.844Z,26.1
2022-07-29T12:14:47.161Z,25.2
2022-07-29T12:15:46.051Z,17.0
2022-07-29T12:16:31.806Z,22.7
2022-07-29T12:17:19.155Z,16.3
2022-07-29T12:18:07.177Z,26.2
2022-07-29T12:18:55.230Z,23.0
2022-07-29T12:19:42.538Z,16.3
2022-07-29T12:20:32.065Z,15.4
2022-07-29T12:21:19.399Z,20.1
2022-07-29T12:22:12.962Z,15.9
2022-07-29T12:23:00.337Z,10.6
2022-07-29T12:23:47.653Z,13.4
2022-07-29T12:24:35.489Z,12.2
2022-07-29T12:25:38.265Z,11.4
2022-07-29T12:26:21.907Z,12.3
2022-07-29T12:27:13.173Z,9.5
2022-07-29T12:28:01.389Z,12.8
2022-07-29T12:28:48.696Z,35.0
2022-07-29T12:29:36.267Z,25.3
2022-07-29T12:30:23.588Z,20.9
2022-07-29T12:31:11.027Z,14.5
2022-07-29T12:31:58.774Z,17.1
2022-07-29T12:32:46.152Z,23.4
2022-07-29T12:33:33.553Z,27.3
2022-07-29T12:34:20.865Z,23.0
2022-07-29T12:35:08.189Z,17.0
2022-07-29T12:36:06.970Z,15.1
2022-07-29T12:36:52.864Z,13.0
2022-07-29T12:37:40.945Z,29.9
2022-07-29T12:38:29.877Z,18.6
2022-07-29T12:39:17.183Z,11.2
2022-07-29T12:40:04.503Z,21.9
2022-07-29T12:40:52.464Z,8.7
2022-07-29T12:41:39.856Z,12.1
2022-07-29T12:42:27.156Z,7.9
2022-07-29T12:43:15.117Z,12.2
2022-07-29T12:44:02.529Z,7.7
2022-07-29T12:44:49.841Z,14.7
2022-07-29T12:45:37.153Z,7.5
2022-07-29T12:46:24.619Z,11.4
2022-07-29T12:47:11.999Z,5.8
2022-07-29T12:47:59.313Z,5.0
2022-07-29T12:48:46.784Z,6.7
2022-07-29T12:49:37.981Z,7.0
2022-07-29T12:50:26.517Z,6.6
2022-07-29T12:51:14.018Z,6.2
2022-07-29T12:52:01.320Z,5.9
2022-07-29T12:52:48.649Z,6.3
2022-07-29T12:53:36.028Z,5.1
2022-07-29T12:54:23.543Z,6.3
2022-07-29T12:55:12.720Z,12.4
2022-07-29T12:56:00.029Z,11.1
2022-07-29T12:56:47.726Z,7.3
2022-07-29T12:57:35.029Z,9.2
2022-07-29T12:58:22.353Z,11.3
2022-07-29T12:59:09.669Z,12.6
2022-07-29T12:59:56.990Z,11.3
2022-07-29T13:00:44.345Z,8.2
2022-07-29T13:01:31.658Z,7.8
2022-07-29T13:02:19.019Z,5.3
2022-07-29T13:03:06.350Z,4.5
2022-07-29T13:03:56.985Z,7.4
2022-07-29T13:04:45.101Z,5.7
2022-07-29T13:05:32.435Z,7.6
2022-07-29T13:06:19.770Z,8.9
2022-07-29T13:07:07.078Z,7.3
2022-07-29T13:07:57.553Z,9.7
2022-07-29T13:08:44.991Z,8.2
2022-07-29T13:09:32.345Z,5.2
2022-07-29T13:10:19.653Z,6.6
2022-07-29T13:11:12.011Z,4.4
2022-07-29T13:11:59.632Z,5.1
2022-07-29T13:12:47.198Z,5.5
2022-07-29T13:13:34.508Z,8.7
2022-07-29T13:14:21.817Z,6.9
2022-07-29T13:15:09.311Z,5.1
2022-07-29T13:15:56.624Z,4.8
2022-07-29T13:16:44.037Z,4.3
2022-07-29T13:17:32.936Z,5.8
2022-07-29T13:18:20.366Z,4.5
2022-07-29T13:19:07.691Z,5.3
2022-07-29T13:19:54.994Z,5.6
2022-07-29T13:20:42.317Z,4.2
2022-07-29T13:21:29.641Z,4.0
2022-07-29T13:22:16.961Z,3.5
2022-07-29T13:23:04.284Z,4.2
2022-07-29T13:23:51.592Z,4.0
2022-07-29T13:24:38.918Z,5.2
2022-07-29T13:25:26.260Z,7.1
2022-07-29T13:26:13.589Z,4.4
2022-07-29T13:27:00.902Z,3.4
2022-07-29T13:27:52.164Z,4.2
2022-07-29T13:28:40.677Z,3.5
2022-07-29T13:29:31.871Z,5.6
2022-07-29T13:30:19.230Z,6.4
2022-07-29T13:31:06.700Z,3.9
2022-07-29T13:31:54.105Z,3.9
2022-07-29T13:32:41.574Z,5.1
2022-07-29T13:33:28.905Z,4.4
2022-07-29T13:34:16.216Z,4.4
2022-07-29T13:35:05.470Z,5.2
2022-07-29T13:35:52.996Z,4.3
2022-07-29T13:36:41.766Z,3.6
2022-07-29T13:37:29.124Z,4.9
2022-07-29T13:38:16.563Z,5.0
2022-07-29T13:39:03.882Z,2.9
2022-07-29T13:39:52.747Z,3.5
2022-07-29T13:40:40.750Z,3.7
2022-07-29T13:41:28.064Z,11.6
2022-07-29T13:42:15.989Z,6.9
2022-07-29T13:43:03.314Z,4.8
2022-07-29T13:43:51.351Z,4.6
2022-07-29T13:44:38.753Z,3.4
2022-07-29T13:45:26.065Z,3.4
2022-07-29T13:46:16.698Z,5.6
2022-07-29T13:47:04.066Z,4.5
2022-07-29T13:47:51.373Z,4.6
2022-07-29T13:48:38.750Z,3.6
2022-07-29T13:49:26.175Z,4.3
2022-07-29T13:50:13.563Z,3.6
2022-07-29T13:51:00.879Z,9.6
2022-07-29T13:51:48.292Z,5.0
2022-07-29T13:52:35.617Z,11.0
2022-07-29T13:53:26.876Z,10.0
2022-07-29T13:54:14.640Z,15.5
2022-07-29T13:55:02.099Z,18.1
2022-07-29T13:55:49.412Z,6.6
2022-07-29T13:56:36.725Z,5.9
2022-07-29T13:57:24.154Z,6.2
2022-07-29T13:58:11.508Z,5.0
2022-07-29T13:58:58.825Z,8.0
2022-07-29T13:59:48.423Z,6.6
2022-07-29T14:00:39.481Z,5.1
2022-07-29T14:01:26.840Z,8.0
2022-07-29T14:02:14.190Z,4.1
2022-07-29T14:03:03.056Z,6.2
2022-07-29T14:03:50.457Z,8.9
2022-07-29T14:04:39.601Z,5.9
2022-07-29T14:05:27.029Z,5.5
2022-07-29T14:06:14.459Z,9.0
2022-07-29T14:07:03.482Z,6.1
2022-07-29T14:07:51.238Z,5.2
2022-07-29T14:08:38.563Z,3.7
2022-07-29T14:09:25.877Z,5.3
2022-07-29T14:10:16.113Z,4.2
2022-07-29T14:11:05.746Z,4.0
2022-07-29T14:11:53.170Z,4.5
2022-07-29T14:12:40.487Z,4.0
2022-07-29T14:13:27.802Z,5.5
2022-07-29T14:14:15.368Z,4.1
2022-07-29T14:15:02.676Z,5.9
2022-07-29T14:15:49.976Z,15.6
2022-07-29T14:16:42.378Z,11.3
2022-07-29T14:17:31.118Z,10.3
2022-07-29T14:18:18.764Z,12.0
2022-07-29T14:19:06.111Z,11.8
2022-07-29T14:19:53.504Z,9.8
2022-07-29T14:20:41.293Z,9.1
2022-07-29T14:21:28.843Z,8.8
2022-07-29T14:22:17.553Z,18.6
2022-07-29T14:23:04.910Z,20.3
2022-07-29T14:23:52.562Z,8.5
2022-07-29T14:24:41.166Z,13.5
2022-07-29T14:26:17.545Z,9.6
2022-07-29T14:27:11.692Z,10.5
2022-07-29T14:27:59.063Z,9.9
2022-07-29T14:28:46.382Z,10.3
2022-07-29T14:29:37.473Z,5.7
2022-07-29T14:30:25.676Z,6.5
2022-07-29T14:31:13.137Z,5.2
2022-07-29T14:32:00.917Z,4.9
2022-07-29T14:32:48.381Z,4.7
2022-07-29T14:33:35.814Z,6.1
2022-07-29T14:34:23.183Z,4.8
2022-07-29T14:35:10.507Z,7.7
2022-07-29T14:36:01.050Z,6.4
2022-07-29T14:36:48.692Z,16.9
2022-07-29T14:37:40.071Z,15.6
2022-07-29T14:38:27.968Z,34.6
2022-07-29T14:39:15.304Z,43.1
2022-07-29T14:40:02.624Z,75.5
2022-07-29T14:40:50.940Z,73.8
2022-07-29T14:41:38.397Z,87.5
2022-07-29T14:42:25.741Z,77.5
2022-07-29T14:43:13.087Z,71.7
2022-07-29T14:44:00.408Z,64.7
2022-07-29T14:44:47.761Z,50.4
2022-07-29T14:45:36.015Z,54.6
2022-07-29T14:46:23.456Z,46.5
2022-07-29T14:47:10.806Z,43.8
2022-07-29T14:47:58.390Z,39.2
2022-07-29T14:48:45.759Z,35.0
2022-07-29T14:49:33.109Z,60.0
2022-07-29T14:50:23.188Z,55.9
2022-07-29T14:51:17.728Z,27.1
2022-07-29T14:52:05.229Z,19.6
2022-07-29T14:52:52.558Z,17.0
2022-07-29T14:53:39.885Z,14.2
2022-07-29T14:54:27.316Z,13.9
2022-07-29T14:55:19.556Z,17.0
2022-07-29T14:56:34.202Z,13.2
2022-07-29T14:57:04.866Z,18.8
2022-07-29T14:57:55.445Z,17.1
2022-07-29T14:58:51.544Z,18.9
2022-07-29T14:59:39.116Z,13.1
2022-07-29T15:00:26.544Z,7.6
2022-07-29T15:01:13.915Z,11.9